createdAt,value
2023-05-24T00:00:22.432Z,96830.63
2023-05-24T00:01:27.142Z,96843.78
2023-05-24T00:02:29.144Z,96838.53
2023-05-24T00:03:35.063Z,96830.63
2023-05-24T00:04:37.303Z,96839.53
2023-05-24T00:05:41.434Z,96832.84
2023-05-24T00:06:44.975Z,96835.16
2023-05-24T00:07:46.721Z,96831.16
2023-05-24T00:08:48.668Z,96831.97
2023-05-24T00:09:50.517Z,96830.47
2023-05-24T00:10:52.352Z,96833.38
2023-05-24T00:11:54.169Z,96835.00
2023-05-24T00:12:55.932Z,96833.72
2023-05-24T00:13:58.017Z,96833.25
2023-05-24T00:14:59.802Z,96841.94
2023-05-24T00:16:01.529Z,96833.81
2023-05-24T00:17:03.430Z,96837.47
2023-05-24T00:18:05.328Z,96837.72
2023-05-24T00:19:07.051Z,96836.84
2023-05-24T00:20:12.565Z,96840.72
2023-05-24T00:21:14.821Z,96838.09
2023-05-24T00:22:16.526Z,96833.88
2023-05-24T00:23:18.240Z,96831.03
2023-05-24T00:24:20.009Z,96835.47
2023-05-24T00:25:21.766Z,96839.94
2023-05-24T00:26:23.574Z,96829.19
2023-05-24T00:27:25.299Z,96840.50
2023-05-24T00:28:27.260Z,96832.59
2023-05-24T00:29:30.844Z,96835.00
2023-05-24T00:30:34.088Z,96836.63
2023-05-24T00:31:35.892Z,96832.94
2023-05-24T00:32:37.695Z,96834.53
2023-05-24T00:33:39.467Z,96834.28
2023-05-24T00:34:41.450Z,96834.28
2023-05-24T00:35:43.235Z,96827.44
2023-05-24T00:36:45.020Z,96836.13
2023-05-24T00:37:46.882Z,96826.94
2023-05-24T00:38:48.671Z,96833.25
2023-05-24T00:39:50.581Z,96832.13
2023-05-24T00:40:52.506Z,96833.38
2023-05-24T00:41:54.245Z,96838.34
2023-05-24T00:42:56.049Z,96829.91
2023-05-24T00:43:57.785Z,96831.72
2023-05-24T00:44:59.493Z,96829.34
2023-05-24T00:46:18.540Z,96836.75
2023-05-24T00:47:20.794Z,96840.44
2023-05-24T00:48:23.949Z,96833.78
2023-05-24T00:49:26.743Z,96841.44
2023-05-24T00:50:28.658Z,96845.69
2023-05-24T00:51:32.805Z,96835.06
2023-05-24T00:52:34.605Z,96846.66
2023-05-24T00:53:37.107Z,96837.38
2023-05-24T00:54:41.007Z,96835.78
2023-05-24T00:55:42.768Z,96838.97
2023-05-24T00:56:44.783Z,96836.91
2023-05-24T00:57:46.580Z,96837.47
2023-05-24T00:58:50.525Z,96834.59
2023-05-24T00:59:52.732Z,96841.69
2023-05-24T01:00:58.055Z,96830.34
2023-05-24T01:02:00.026Z,96837.69
2023-05-24T01:03:02.811Z,96840.09
2023-05-24T01:04:06.049Z,96834.84
2023-05-24T01:05:08.063Z,96834.84
2023-05-24T01:06:09.872Z,96839.31
2023-05-24T01:07:31.866Z,96835.84
2023-05-24T01:08:46.456Z,96835.06
2023-05-24T01:09:56.853Z,96838.25
2023-05-24T01:11:02.184Z,96837.25
2023-05-24T01:12:15.681Z,96825.88
2023-05-24T01:13:26.383Z,96833.00
2023-05-24T01:14:34.233Z,96829.56
2023-05-24T01:15:36.062Z,96829.00
2023-05-24T01:16:47.048Z,96824.53
2023-05-24T01:18:01.937Z,96817.13
2023-05-24T01:19:13.215Z,96830.28
2023-05-24T01:20:17.572Z,96820.31
2023-05-24T01:21:28.430Z,96820.06
2023-05-24T01:22:36.171Z,96821.69
2023-05-24T01:24:13.386Z,96827.16
2023-05-24T01:25:15.106Z,96824.78
2023-05-24T01:26:39.306Z,96824.53
2023-05-24T01:27:41.288Z,96824.31
2023-05-24T01:28:44.777Z,96821.44
2023-05-24T01:29:53.410Z,96823.03
2023-05-24T01:30:56.209Z,96824.63
2023-05-24T01:31:58.197Z,96822.25
2023-05-24T01:33:00.364Z,96824.06
2023-05-24T01:34:02.189Z,96819.59
2023-05-24T01:35:04.064Z,96821.44
2023-05-24T01:36:06.518Z,96817.69
2023-05-24T01:37:08.398Z,96820.31
2023-05-24T01:38:12.288Z,96821.56
2023-05-24T01:39:14.218Z,96818.66
2023-05-24T01:40:16.083Z,96817.59
2023-05-24T01:41:20.829Z,96825.50
2023-05-24T01:42:46.253Z,96817.03
2023-05-24T01:44:00.645Z,96826.22
2023-05-24T01:45:11.420Z,96825.41
2023-05-24T01:46:31.865Z,96817.25
2023-05-24T01:47:47.942Z,96826.53
2023-05-24T01:49:02.769Z,96824.13
2023-05-24T01:50:10.675Z,96815.19
2023-05-24T01:51:16.009Z,96817.59
2023-05-24T01:52:20.788Z,96816.81
2023-05-24T01:53:24.322Z,96822.06
2023-05-24T01:54:27.335Z,96830.75
2023-05-24T01:55:31.348Z,96824.47
2023-05-24T01:56:33.349Z,96823.91
2023-05-24T01:57:36.367Z,96826.53
2023-05-24T01:58:39.434Z,96819.44
2023-05-24T01:59:43.546Z,96826.53
2023-05-24T02:00:45.884Z,96824.94
2023-05-24T02:01:48.222Z,96828.34
2023-05-24T02:02:50.650Z,96827.34
2023-05-24T02:03:52.415Z,96829.16
2023-05-24T02:04:54.560Z,96832.03
2023-05-24T02:05:56.383Z,96834.91
2023-05-24T02:06:58.069Z,96831.69
2023-05-24T02:07:59.846Z,96832.19
2023-05-24T02:09:01.600Z,96830.91
2023-05-24T02:10:04.094Z,96829.06
2023-05-24T02:11:05.978Z,96827.50
2023-05-24T02:12:08.077Z,96829.56
2023-05-24T02:13:09.972Z,96823.47
2023-05-24T02:14:11.807Z,96829.56
2023-05-24T02:15:15.056Z,96823.25
2023-05-24T02:16:18.412Z,96823.25
2023-05-24T02:17:20.346Z,96825.88
2023-05-24T02:18:22.854Z,96825.53
2023-05-24T02:19:25.307Z,96827.63
2023-05-24T02:20:29.155Z,96827.63
2023-05-24T02:21:33.096Z,96828.44
2023-05-24T02:22:34.833Z,96827.38
2023-05-24T02:23:37.920Z,96834.16
2023-05-24T02:24:40.653Z,96830.97
2023-05-24T02:25:42.412Z,96831.88
2023-05-24T02:26:44.530Z,96832.09
2023-05-24T02:27:47.484Z,96831.31
2023-05-24T02:28:49.239Z,96827.91
2023-05-24T02:29:51.011Z,96829.16
2023-05-24T02:30:52.856Z,96829.97
2023-05-24T02:31:56.991Z,96827.06
2023-05-24T02:32:58.823Z,96828.69
2023-05-24T02:34:00.626Z,96835.31
2023-05-24T02:35:02.412Z,96835.06
2023-05-24T02:36:04.257Z,96836.66
2023-05-24T02:37:06.337Z,96833.00
2023-05-24T02:38:08.153Z,96827.19
2023-05-24T02:39:09.955Z,96833.22
2023-05-24T02:40:12.257Z,96830.38
2023-05-24T02:41:18.080Z,96829.13
2023-05-24T02:42:19.838Z,96827.06
2023-05-24T02:43:21.696Z,96826.03
2023-05-24T02:44:23.463Z,96821.56
2023-05-24T02:45:25.228Z,96817.91
2023-05-24T02:46:26.991Z,96821.56
2023-05-24T02:47:28.744Z,96817.59
2023-05-24T02:48:30.627Z,96823.63
2023-05-24T02:49:32.455Z,96820.22
2023-05-24T02:50:34.258Z,96816.75
2023-05-24T02:51:37.230Z,96816.16
2023-05-24T02:52:38.988Z,96815.59
2023-05-24T02:53:43.755Z,96820.56
2023-05-24T02:54:45.900Z,96825.50
2023-05-24T02:55:47.626Z,96823.88
2023-05-24T02:56:49.352Z,96823.88
2023-05-24T02:57:51.641Z,96820.22
2023-05-24T02:58:54.456Z,96825.25
2023-05-24T02:59:56.266Z,96826.84
2023-05-24T03:00:57.980Z,96832.34
2023-05-24T03:02:00.278Z,96823.88
2023-05-24T03:03:03.473Z,96833.63
2023-05-24T03:04:05.763Z,96834.88
2023-05-24T03:05:08.670Z,96836.72
2023-05-24T03:06:10.425Z,96836.47
2023-05-24T03:07:12.128Z,96835.44
2023-05-24T03:08:13.859Z,96833.28
2023-05-24T03:09:16.972Z,96826.22
2023-05-24T03:10:18.713Z,96830.41
2023-05-24T03:11:22.623Z,96823.31
2023-05-24T03:12:24.629Z,96830.41
2023-05-24T03:13:26.464Z,96838.53
2023-05-24T03:14:28.208Z,96831.69
2023-05-24T03:15:29.995Z,96832.25
2023-05-24T03:16:32.256Z,96838.09
2023-05-24T03:17:34.052Z,96838.09
2023-05-24T03:18:36.447Z,96831.78
2023-05-24T03:19:38.316Z,96840.72
2023-05-24T03:20:40.180Z,96842.06
2023-05-24T03:21:41.968Z,96838.66
2023-05-24T03:22:44.265Z,96839.09
2023-05-24T03:23:46.012Z,96838.22
2023-05-24T03:24:48.958Z,96837.41
2023-05-24T03:25:50.772Z,96836.63
2023-05-24T03:26:52.458Z,96840.03
2023-05-24T03:27:54.169Z,96845.31
2023-05-24T03:28:56.738Z,96837.41
2023-05-24T03:29:58.702Z,96833.75
2023-05-24T03:31:00.452Z,96837.97
2023-05-24T03:32:02.204Z,96836.16
2023-05-24T03:33:03.976Z,96835.34
2023-05-24T03:34:05.793Z,96836.63
2023-05-24T03:35:08.071Z,96836.06
2023-05-24T03:36:10.136Z,96836.28
2023-05-24T03:37:12.472Z,96839.19
2023-05-24T03:38:14.237Z,96847.84
2023-05-24T03:39:16.130Z,96840.41
2023-05-24T03:40:17.871Z,96844.31
2023-05-24T03:41:19.572Z,96838.84
2023-05-24T03:42:22.603Z,96838.84
2023-05-24T03:43:24.449Z,96850.16
2023-05-24T03:44:26.680Z,96843.88
2023-05-24T03:45:38.415Z,96847.06
2023-05-24T03:46:41.595Z,96841.25
2023-05-24T03:47:43.347Z,96844.66
2023-05-24T03:48:45.128Z,96849.34
2023-05-24T03:49:47.165Z,96850.16
2023-05-24T03:50:48.963Z,96850.94
2023-05-24T03:51:50.749Z,96851.50
2023-05-24T03:52:53.428Z,96851.28
2023-05-24T03:53:58.445Z,96854.47
2023-05-24T03:55:00.213Z,96853.69
2023-05-24T03:56:02.160Z,96860.78
2023-05-24T03:57:04.008Z,96856.31
2023-05-24T03:58:05.829Z,96856.06
2023-05-24T03:59:07.542Z,96859.72
2023-05-24T04:00:10.342Z,96856.31
2023-05-24T04:01:21.962Z,96853.91
2023-05-24T04:02:31.388Z,96856.53
2023-05-24T04:03:34.516Z,96857.00
2023-05-24T04:04:37.507Z,96856.44
2023-05-24T04:05:39.254Z,96855.63
2023-05-24T04:06:42.284Z,96855.06
2023-05-24T04:07:46.599Z,96856.91
2023-05-24T04:08:48.334Z,96855.28
2023-05-24T04:09:50.254Z,96858.75
2023-05-24T04:10:52.069Z,96860.81
2023-05-24T04:11:53.820Z,96867.66
2023-05-24T04:12:57.277Z,96864.78
2023-05-24T04:14:00.941Z,96867.97
2023-05-24T04:15:03.187Z,96866.97
2023-05-24T04:16:04.946Z,96870.38
2023-05-24T04:17:08.258Z,96867.75
2023-05-24T04:18:10.320Z,96869.59
2023-05-24T04:19:12.274Z,96865.00
2023-05-24T04:20:14.388Z,96865.50
2023-05-24T04:21:16.235Z,96870.75
2023-05-24T04:22:18.862Z,96874.97
2023-05-24T04:23:20.687Z,96860.25
2023-05-24T04:24:22.433Z,96866.06
2023-05-24T04:25:24.234Z,96866.84
2023-05-24T04:26:25.960Z,96864.00
2023-05-24T04:27:27.729Z,96865.59
2023-05-24T04:28:29.546Z,96863.19
2023-05-24T04:29:33.739Z,96867.66
2023-05-24T04:30:36.909Z,96861.38
2023-05-24T04:31:38.756Z,96861.13
2023-05-24T04:32:40.846Z,96858.75
2023-05-24T04:33:42.736Z,96864.44
2023-05-24T04:34:46.363Z,96862.38
2023-05-24T04:35:48.808Z,96860.81
2023-05-24T04:36:52.759Z,96863.44
2023-05-24T04:37:54.569Z,96863.44
2023-05-24T04:38:57.709Z,96865.81
2023-05-24T04:39:59.474Z,96863.44
2023-05-24T04:41:01.269Z,96862.16
2023-05-24T04:42:03.575Z,96864.00
2023-05-24T04:43:07.574Z,96868.22
2023-05-24T04:44:10.232Z,96873.47
2023-05-24T04:45:12.023Z,96870.84
2023-05-24T04:46:13.824Z,96871.88
2023-05-24T04:47:16.592Z,96872.81
2023-05-24T04:48:18.474Z,96879.44
2023-05-24T04:49:20.221Z,96877.59
2023-05-24T04:50:22.041Z,96878.88
2023-05-24T04:51:24.426Z,96874.19
2023-05-24T04:52:26.126Z,96878.94
2023-05-24T04:53:27.874Z,96877.38
2023-05-24T04:54:29.620Z,96878.50
2023-05-24T04:55:31.369Z,96884.09
2023-05-24T04:56:33.087Z,96874.16
2023-05-24T04:57:34.876Z,96879.19
2023-05-24T04:58:38.158Z,96880.31
2023-05-24T04:59:41.214Z,96872.16
2023-05-24T05:00:43.952Z,96875.84
2023-05-24T05:01:46.088Z,96876.28
2023-05-24T05:02:48.010Z,96876.56
2023-05-24T05:03:49.806Z,96874.72
2023-05-24T05:04:51.632Z,96879.50
2023-05-24T05:05:53.969Z,96878.25
2023-05-24T05:06:55.838Z,96878.00
2023-05-24T05:07:57.801Z,96873.56
2023-05-24T05:08:59.496Z,96879.59
2023-05-24T05:10:01.308Z,96871.94
2023-05-24T05:11:03.185Z,96873.00
2023-05-24T05:12:05.047Z,96875.34
2023-05-24T05:13:06.811Z,96874.56
2023-05-24T05:14:11.798Z,96873.28
2023-05-24T05:15:13.805Z,96874.41
2023-05-24T05:16:15.574Z,96872.34
2023-05-24T05:17:17.289Z,96872.91
2023-05-24T05:18:19.106Z,96869.03
2023-05-24T05:19:21.076Z,96864.81
2023-05-24T05:20:23.033Z,96862.97
2023-05-24T05:21:24.890Z,96869.84
2023-05-24T05:22:26.650Z,96862.53
2023-05-24T05:23:28.414Z,96862.06
2023-05-24T05:24:30.231Z,96867.66
2023-05-24T05:25:32.225Z,96862.16
2023-05-24T05:26:34.717Z,96862.72
2023-05-24T05:27:36.554Z,96867.53
2023-05-24T05:28:38.336Z,96869.66
2023-05-24T05:29:40.128Z,96868.66
2023-05-24T05:30:42.087Z,96867.03
2023-05-24T05:31:44.166Z,96861.78
2023-05-24T05:32:46.091Z,96874.94
2023-05-24T05:33:48.124Z,96869.44
2023-05-24T05:34:50.145Z,96878.34
2023-05-24T05:35:53.584Z,96872.28
2023-05-24T05:36:56.615Z,96873.34
2023-05-24T05:37:58.330Z,96875.97
2023-05-24T05:39:00.144Z,96871.50
2023-05-24T05:40:01.893Z,96872.28
2023-05-24T05:41:03.734Z,96885.69
2023-05-24T05:42:05.918Z,96878.03
2023-05-24T05:43:08.754Z,96884.88
2023-05-24T05:44:11.270Z,96874.84
2023-05-24T05:45:13.014Z,96879.56
2023-05-24T05:46:15.985Z,96880.00
2023-05-24T05:47:17.747Z,96880.50
2023-05-24T05:48:20.175Z,96878.88
2023-05-24T05:49:21.924Z,96874.88
2023-05-24T05:50:23.852Z,96882.97
2023-05-24T05:51:25.637Z,96876.13
2023-05-24T05:52:27.394Z,96882.66
2023-05-24T05:53:29.102Z,96878.19
2023-05-24T05:54:31.547Z,96880.25
2023-05-24T05:55:33.354Z,96887.34
2023-05-24T05:56:41.164Z,96877.06
2023-05-24T05:57:43.355Z,96886.56
2023-05-24T05:58:45.022Z,96881.28
2023-05-24T05:59:46.739Z,96882.88
2023-05-24T06:00:48.501Z,96887.34
2023-05-24T06:01:50.278Z,96886.56
2023-05-24T06:02:52.134Z,96886.56
2023-05-24T06:03:54.017Z,96894.66
2023-05-24T06:04:56.490Z,96892.28
2023-05-24T06:05:58.259Z,96896.75
2023-05-24T06:07:00.049Z,96890.69
2023-05-24T06:08:01.851Z,96895.94
2023-05-24T06:09:03.717Z,96898.34
2023-05-24T06:10:06.436Z,96893.66
2023-05-24T06:11:08.174Z,96890.19
2023-05-24T06:12:09.954Z,96891.81
2023-05-24T06:13:11.698Z,96897.88
2023-05-24T06:14:18.570Z,96904.41
2023-05-24T06:15:23.166Z,96907.03
2023-05-24T06:16:25.053Z,96905.19
2023-05-24T06:17:28.505Z,96902.78
2023-05-24T06:18:32.268Z,96903.03
2023-05-24T06:19:34.131Z,96908.31
2023-05-24T06:20:37.299Z,96903.28
2023-05-24T06:21:41.182Z,96904.53
2023-05-24T06:22:43.018Z,96910.25
2023-05-24T06:23:44.785Z,96907.84
2023-05-24T06:24:46.539Z,96913.38
2023-05-24T06:25:48.431Z,96906.28
2023-05-24T06:26:51.005Z,96906.72
2023-05-24T06:27:52.742Z,96911.97
2023-05-24T06:28:54.575Z,96909.34
2023-05-24T06:29:56.315Z,96911.41
2023-05-24T06:30:58.224Z,96911.41
2023-05-24T06:32:00.207Z,96914.59
2023-05-24T06:33:02.712Z,96910.97
2023-05-24T06:34:04.933Z,96923.63
2023-05-24T06:35:08.119Z,96915.75
2023-05-24T06:36:09.868Z,96918.38
2023-05-24T06:37:15.518Z,96914.16
2023-05-24T06:38:17.999Z,96918.38
2023-05-24T06:39:19.761Z,96918.38
2023-05-24T06:40:21.530Z,96921.56
2023-05-24T06:41:23.234Z,96919.75
2023-05-24T06:42:24.997Z,96913.94
2023-05-24T06:43:26.706Z,96921.00
2023-05-24T06:44:34.244Z,96920.22
2023-05-24T06:45:36.793Z,96918.63
2023-05-24T06:46:39.401Z,96919.66
2023-05-24T06:47:41.577Z,96928.31
2023-05-24T06:48:43.512Z,96930.72
2023-05-24T06:49:45.397Z,96930.97
2023-05-24T06:50:47.688Z,96930.97
2023-05-24T06:51:49.771Z,96934.63
2023-05-24T06:52:51.541Z,96934.06
2023-05-24T06:53:53.642Z,96929.81
2023-05-24T06:54:55.533Z,96928.25
2023-05-24T06:55:57.686Z,96938.97
2023-05-24T06:56:59.538Z,96944.00
2023-05-24T06:58:01.316Z,96936.69
2023-05-24T06:59:03.058Z,96936.69
2023-05-24T07:00:10.053Z,96934.63
2023-05-24T07:01:12.359Z,96938.63
2023-05-24T07:02:14.148Z,96934.97
2023-05-24T07:03:16.100Z,96940.22
2023-05-24T07:04:18.073Z,96941.59
2023-05-24T07:05:20.450Z,96942.38
2023-05-24T07:06:22.177Z,96946.84
2023-05-24T07:07:23.975Z,96937.91
2023-05-24T07:08:25.951Z,96936.91
2023-05-24T07:09:27.697Z,96939.31
2023-05-24T07:10:29.449Z,96938.47
2023-05-24T07:11:31.677Z,96940.53
2023-05-24T07:12:33.437Z,96941.59
2023-05-24T07:13:35.184Z,96940.22
2023-05-24T07:14:36.834Z,96944.44
2023-05-24T07:15:38.576Z,96942.88
2023-05-24T07:16:40.357Z,96944.94
2023-05-24T07:17:42.157Z,96948.34
2023-05-24T07:18:43.964Z,96941.47
2023-05-24T07:19:45.692Z,96950.19
2023-05-24T07:20:47.784Z,96942.28
2023-05-24T07:21:50.866Z,96940.69
2023-05-24T07:22:53.213Z,96945.16
2023-05-24T07:23:54.933Z,96942.75
2023-05-24T07:24:56.916Z,96946.16
2023-05-24T07:25:59.355Z,96948.00
2023-05-24T07:27:01.216Z,96949.63
2023-05-24T07:28:02.954Z,96949.84
2023-05-24T07:29:04.780Z,96942.97
2023-05-24T07:30:16.477Z,96947.22
2023-05-24T07:31:27.670Z,96948.22
2023-05-24T07:32:29.816Z,96947.22
2023-05-24T07:33:31.726Z,96947.22
2023-05-24T07:34:33.459Z,96951.69
2023-05-24T07:35:35.187Z,96944.59
2023-05-24T07:36:37.532Z,96945.59
2023-05-24T07:37:39.864Z,96950.84
2023-05-24T07:38:41.619Z,96955.31
2023-05-24T07:39:43.690Z,96952.47
2023-05-24T07:40:45.663Z,96958.75
2023-05-24T07:41:47.644Z,96954.53
2023-05-24T07:42:49.359Z,96960.59
2023-05-24T07:43:51.477Z,96960.38
2023-05-24T07:44:53.175Z,96952.25
2023-05-24T07:45:55.049Z,96956.25
2023-05-24T07:46:57.670Z,96960.44
2023-05-24T07:47:59.585Z,96955.53
2023-05-24T07:49:01.431Z,96958.72
2023-05-24T07:50:03.907Z,96964.78
2023-05-24T07:51:06.548Z,96958.50
2023-05-24T07:52:08.755Z,96966.75
2023-05-24T07:53:10.535Z,96959.63
2023-05-24T07:54:12.333Z,96954.94
2023-05-24T07:55:14.967Z,96963.75
2023-05-24T07:56:16.685Z,96955.59
2023-05-24T07:57:21.512Z,96960.84
2023-05-24T07:58:23.244Z,96965.94
2023-05-24T07:59:25.062Z,96960.44
2023-05-24T08:00:27.028Z,96968.91
2023-05-24T08:01:29.111Z,96962.63
2023-05-24T08:02:31.590Z,96964.19
2023-05-24T08:03:35.112Z,96960.78
2023-05-24T08:04:36.899Z,96961.13
2023-05-24T08:05:38.668Z,96956.66
2023-05-24T08:06:40.509Z,96961.69
2023-05-24T08:07:42.425Z,96958.78
2023-05-24T08:08:44.175Z,96962.25
2023-05-24T08:09:46.173Z,96960.97
2023-05-24T08:10:47.972Z,96956.50
2023-05-24T08:11:49.714Z,96963.38
2023-05-24T08:12:55.027Z,96953.66
2023-05-24T08:13:56.868Z,96946.53
2023-05-24T08:14:58.612Z,96960.50
2023-05-24T08:16:00.529Z,96963.94
2023-05-24T08:17:02.413Z,96958.41
2023-05-24T08:18:05.434Z,96956.03
2023-05-24T08:19:07.338Z,96956.03
2023-05-24T08:20:10.191Z,96957.28
2023-05-24T08:21:12.338Z,96954.44
2023-05-24T08:22:14.218Z,96955.22
2023-05-24T08:23:15.966Z,96951.56
2023-05-24T08:24:17.973Z,96961.31
2023-05-24T08:25:20.222Z,96961.88
2023-05-24T08:26:22.297Z,96968.50
2023-05-24T08:27:24.136Z,96965.88
2023-05-24T08:28:26.598Z,96958.75
2023-05-24T08:29:28.761Z,96965.63
2023-05-24T08:30:30.886Z,96967.22
2023-05-24T08:31:35.373Z,96965.16
2023-05-24T08:32:38.852Z,96964.69
2023-05-24T08:33:41.093Z,96962.63
2023-05-24T08:34:42.886Z,96961.34
2023-05-24T08:35:44.861Z,96963.53
2023-05-24T08:36:46.801Z,96969.09
2023-05-24T08:37:49.722Z,96966.56
2023-05-24T08:38:51.766Z,96966.66
2023-05-24T08:39:53.557Z,96966.75
2023-05-24T08:40:55.560Z,96969.47
2023-05-24T08:42:08.664Z,96969.56
2023-05-24T08:43:12.481Z,96974.94
2023-05-24T08:44:14.810Z,96967.66
2023-05-24T08:45:18.173Z,96978.84
2023-05-24T08:46:20.295Z,96969.16
2023-05-24T08:47:22.394Z,96968.72
2023-05-24T08:48:26.022Z,96962.72
2023-05-24T08:49:27.783Z,96967.03
2023-05-24T08:50:30.772Z,96964.28
2023-05-24T08:51:34.283Z,96966.19
2023-05-24T08:52:36.618Z,96962.25
2023-05-24T08:53:39.415Z,96970.50
2023-05-24T08:54:41.941Z,96968.97
2023-05-24T08:55:44.941Z,96968.25
2023-05-24T08:56:47.450Z,96965.94
2023-05-24T08:57:49.229Z,96965.47
2023-05-24T08:58:51.124Z,96964.16
2023-05-24T08:59:56.277Z,96972.41
2023-05-24T09:00:59.052Z,96961.84
2023-05-24T09:02:02.138Z,96964.50
2023-05-24T09:03:05.213Z,96960.78
2023-05-24T09:04:08.564Z,96964.50
2023-05-24T09:05:11.334Z,96963.06
2023-05-24T09:06:14.051Z,96957.00
2023-05-24T09:07:17.870Z,96962.25
2023-05-24T09:08:20.719Z,96969.63
2023-05-24T09:09:23.114Z,96960.09
2023-05-24T09:10:25.877Z,96961.94
2023-05-24T09:11:27.942Z,96964.81
2023-05-24T09:13:36.479Z,96961.84
2023-05-24T09:14:38.362Z,96972.16
2023-05-24T09:15:40.395Z,96960.00
2023-05-24T09:16:43.600Z,96954.75
2023-05-24T09:17:45.674Z,96956.34
2023-05-24T09:18:47.585Z,96958.97
2023-05-24T09:19:50.895Z,96950.53
2023-05-24T09:20:52.812Z,96960.28
2023-05-24T09:21:55.278Z,96962.09
2023-05-24T09:22:58.157Z,96963.69
2023-05-24T09:23:59.898Z,96954.75
2023-05-24T09:25:02.279Z,96960.81
2023-05-24T09:26:08.954Z,96955.28
2023-05-24T09:27:10.795Z,96959.53
2023-05-24T09:28:17.954Z,96956.91
2023-05-24T09:29:23.195Z,96946.13
2023-05-24T09:30:24.934Z,96951.72
2023-05-24T09:31:35.996Z,96941.72
2023-05-24T09:32:37.811Z,96953.38
2023-05-24T09:33:40.195Z,96954.50
2023-05-24T09:34:42.850Z,96948.16
2023-05-24T09:35:44.615Z,96946.09
2023-05-24T09:36:47.301Z,96946.63
2023-05-24T09:37:49.037Z,96946.41
2023-05-24T09:39:04.315Z,96951.44
2023-05-24T09:40:07.393Z,96947.97
2023-05-24T09:41:11.133Z,96953.25
2023-05-24T09:42:17.849Z,96947.19
2023-05-24T09:43:19.859Z,96954.06
2023-05-24T09:44:25.119Z,96948.47
2023-05-24T09:45:27.351Z,96953.53
2023-05-24T09:46:30.097Z,96943.75
2023-05-24T09:47:33.457Z,96946.41
2023-05-24T09:48:35.354Z,96946.88
2023-05-24T09:49:37.897Z,96944.00
2023-05-24T09:50:39.830Z,96947.44
2023-05-24T09:51:41.791Z,96953.53
2023-05-24T09:52:43.788Z,96950.88
2023-05-24T09:53:47.268Z,96945.06
2023-05-24T09:54:49.029Z,96947.69
2023-05-24T09:55:50.955Z,96954.00
2023-05-24T09:56:52.760Z,96955.06
2023-05-24T09:58:04.505Z,96952.16
2023-05-24T09:59:10.140Z,96957.19
2023-05-24T10:00:17.839Z,96959.03
2023-05-24T10:01:22.870Z,96955.06
2023-05-24T10:02:26.077Z,96949.22
2023-05-24T10:03:27.886Z,96952.41
2023-05-24T10:04:33.054Z,96953.66
2023-05-24T10:05:38.358Z,96948.66
2023-05-24T10:06:43.205Z,96947.84
2023-05-24T10:07:45.640Z,96946.81
2023-05-24T10:08:48.494Z,96947.06
2023-05-24T10:09:50.325Z,96946.50
2023-05-24T10:10:52.402Z,96940.66
2023-05-24T10:11:54.223Z,96942.75
2023-05-24T10:12:56.531Z,96948.03
2023-05-24T10:13:59.164Z,96946.44
2023-05-24T10:15:01.014Z,96939.31
2023-05-24T10:16:03.330Z,96949.63
2023-05-24T10:17:08.400Z,96944.03
2023-05-24T10:18:13.675Z,96947.97
2023-05-24T10:19:17.179Z,96952.97
2023-05-24T10:20:19.063Z,96948.66
2023-05-24T10:21:22.271Z,96950.53
2023-05-24T10:22:25.337Z,96946.28
2023-05-24T10:23:29.711Z,96952.03
2023-05-24T10:24:33.841Z,96960.91
2023-05-24T10:25:35.799Z,96957.16
2023-05-24T10:26:39.730Z,96948.19
2023-05-24T10:27:41.754Z,96955.41
2023-05-24T10:28:45.619Z,96955.69
2023-05-24T10:29:47.285Z,96950.75
2023-05-24T10:30:55.994Z,96958.19
2023-05-24T10:31:58.775Z,96955.22
2023-05-24T10:33:01.777Z,96952.66
2023-05-24T10:34:08.337Z,96952.19
2023-05-24T10:35:12.725Z,96945.00
2023-05-24T10:36:16.286Z,96956.34
2023-05-24T10:37:18.571Z,96949.56
2023-05-24T10:38:22.335Z,96953.78
2023-05-24T10:39:25.840Z,96957.00
2023-05-24T10:40:27.648Z,96952.84
2023-05-24T10:41:29.489Z,96952.84
2023-05-24T10:42:32.664Z,96958.09
2023-05-24T10:43:38.085Z,96961.16
2023-05-24T10:44:39.948Z,96953.16
2023-05-24T10:45:42.233Z,96953.72
2023-05-24T10:47:04.416Z,96959.06
2023-05-24T10:48:10.659Z,96949.00
2023-05-24T10:49:14.080Z,96944.84
2023-05-24T10:50:19.325Z,96949.94
2023-05-24T10:51:35.040Z,96953.06
2023-05-24T10:52:37.309Z,96949.09
2023-05-24T10:53:40.571Z,96953.53
2023-05-24T10:55:03.927Z,96954.09
2023-05-24T10:56:09.962Z,96959.44
2023-05-24T10:57:12.187Z,96957.84
2023-05-24T10:58:14.281Z,96951.53
2023-05-24T10:59:29.165Z,96956.03
2023-05-24T11:00:35.736Z,96958.91
2023-05-24T11:01:38.203Z,96960.19
2023-05-24T11:02:40.699Z,96955.47
2023-05-24T11:03:43.559Z,96958.81
2023-05-24T11:04:49.602Z,96960.09
2023-05-24T11:05:53.299Z,96959.53
2023-05-24T11:06:56.498Z,96955.63
2023-05-24T11:08:01.510Z,96960.19
2023-05-24T11:09:03.459Z,96957.59
2023-05-24T11:10:09.734Z,96951.31
2023-05-24T11:11:24.700Z,96953.44
2023-05-24T11:12:34.924Z,96953.94
2023-05-24T11:13:37.095Z,96952.34
2023-05-24T11:14:40.086Z,96955.53
2023-05-24T11:15:50.023Z,96951.84
2023-05-24T11:16:52.113Z,96952.41
2023-05-24T11:18:14.283Z,96953.53
2023-05-24T11:19:20.786Z,96955.84
2023-05-24T11:20:22.897Z,96952.66
2023-05-24T11:21:24.916Z,96954.53
2023-05-24T11:22:27.221Z,96949.59
2023-05-24T11:23:29.185Z,96956.44
2023-05-24T11:24:31.102Z,96954.63
2023-05-24T11:25:37.697Z,96951.16
2023-05-24T11:26:40.290Z,96958.38
2023-05-24T11:27:44.395Z,96951.03
2023-05-24T11:28:46.980Z,96962.91
2023-05-24T11:29:49.021Z,96952.59
2023-05-24T11:30:51.084Z,96954.69
2023-05-24T11:32:05.803Z,96951.03
2023-05-24T11:33:23.679Z,96958.94
2023-05-24T11:34:27.546Z,96954.22
2023-05-24T11:35:30.119Z,96958.97
2023-05-24T11:36:33.450Z,96956.91
2023-05-24T11:37:45.673Z,96954.03
2023-05-24T11:38:49.156Z,96956.41
2023-05-24T11:39:54.642Z,96960.09
2023-05-24T11:40:58.781Z,96956.09
2023-05-24T11:42:01.600Z,96946.63
2023-05-24T11:43:05.977Z,96959.25
2023-05-24T11:44:08.596Z,96954.44
2023-05-24T11:45:11.186Z,96957.09
2023-05-24T11:46:12.920Z,96956.28
2023-05-24T11:47:14.611Z,96953.34
2023-05-24T11:48:17.180Z,96952.78
2023-05-24T11:49:18.925Z,96948.25
2023-05-24T11:50:25.326Z,96950.88
2023-05-24T11:51:29.750Z,96949.28
2023-05-24T11:52:31.729Z,96948.25
2023-05-24T11:53:33.525Z,96950.38
2023-05-24T11:54:37.659Z,96949.59
2023-05-24T11:55:41.597Z,96945.91
2023-05-24T11:56:43.510Z,96947.97
2023-05-24T11:57:50.223Z,96950.34
2023-05-24T11:58:56.425Z,96947.44
2023-05-24T11:59:58.994Z,96955.84
2023-05-24T12:01:01.078Z,96940.03
2023-05-24T12:02:03.903Z,96950.34
2023-05-24T12:03:08.222Z,96956.16
2023-05-24T12:04:10.395Z,96951.69
2023-05-24T12:05:14.375Z,96951.34
2023-05-24T12:06:16.100Z,96949.28
2023-05-24T12:07:18.206Z,96948.25
2023-05-24T12:08:20.831Z,96949.59
2023-05-24T12:09:23.910Z,96949.91
2023-05-24T12:10:25.674Z,96949.09
2023-05-24T12:11:28.612Z,96955.34
2023-05-24T12:12:38.766Z,96952.41
2023-05-24T12:13:47.359Z,96953.44
2023-05-24T12:14:49.113Z,96950.00
2023-05-24T12:15:55.554Z,96958.25
2023-05-24T12:16:58.840Z,96952.88
2023-05-24T12:18:01.141Z,96954.97
2023-05-24T12:19:07.429Z,96957.91
2023-05-24T12:20:16.173Z,96955.84
2023-05-24T12:21:18.869Z,96955.06
2023-05-24T12:22:27.444Z,96951.53
2023-05-24T12:23:32.209Z,96950.97
2023-05-24T12:24:34.551Z,96954.59